Time;durP1;ratioP1;P1;durP2;ratioP2;P2;SDS_P1;SDS_P2;PMS_P1;PMS_P2;Temp;Humidity;BMP_temperature;BMP_pressure;BME280_temperature;BME280_humidity;BME280_pressure;Samples;Min_cycle;Max_cycle;Signal;HPM_P1;HPM_P2
2023/10/28 00:02:14;;;;;;;60.97;26.23;;;11.40;99.90;;;;;;6158176;23;20525;-92
2023/10/28 00:04:41;;;;;;;74.45;28.67;;;10.80;99.90;;;;;;6157388;23;20402;-93
2023/10/28 00:07:06;;;;;;;74.20;28.67;;;11.30;99.90;;;;;;6157309;23;20744;-93
2023/10/28 00:09:32;;;;;;;62.60;27.87;;;11.20;99.90;;;;;;6157704;23;20455;-93
2023/10/28 00:11:58;;;;;;;80.53;30.00;;;11.20;99.90;;;;;;6156867;23;20406;-94
2023/10/28 00:14:23;;;;;;;82.65;31.50;;;10.50;99.90;;;;;;6157748;23;20693;-91
2023/10/28 00:16:49;;;;;;;80.10;31.90;;;11.80;99.90;;;;;;6157273;23;20368;-92
2023/10/28 00:19:16;;;;;;;74.03;30.52;;;11.80;99.90;;;;;;6158023;23;20367;-94
2023/10/28 00:21:42;;;;;;;73.13;31.25;;;11.30;99.90;;;;;;6181605;23;20663;-92
2023/10/28 00:24:10;;;;;;;72.05;31.88;;;11.20;99.90;;;;;;6181877;23;20360;-93
2023/10/28 00:26:36;;;;;;;84.78;32.63;;;11.10;99.90;;;;;;6157216;23;20410;-93
2023/10/28 00:29:01;;;;;;;81.88;33.22;;;11.50;99.90;;;;;;6156505;23;20372;-92
2023/10/28 00:31:28;;;;;;;85.60;35.57;;;11.40;99.90;;;;;;6157763;23;20852;-93
2023/10/28 00:33:54;;;;;;;79.57;35.88;;;11.40;99.90;;;;;;6156492;23;20382;-93
2023/10/28 00:36:19;;;;;;;72.38;37.10;;;11.30;99.90;;;;;;6157354;23;20375;-92
2023/10/28 00:38:45;;;;;;;79.03;36.85;;;11.40;99.90;;;;;;6157136;23;20364;-93
2023/10/28 00:41:11;;;;;;;83.37;38.30;;;11.30;99.90;;;;;;6157513;23;20844;-92
2023/10/28 00:43:37;;;;;;;77.25;39.15;;;11.10;99.90;;;;;;6156758;23;20374;-93
2023/10/28 00:46:03;;;;;;;85.20;41.75;;;11.30;99.90;;;;;;6157042;23;20396;-93
2023/10/28 00:48:30;;;;;;;86.30;42.63;;;11.10;99.90;;;;;;6182118;23;20413;-94
2023/10/28 00:50:57;;;;;;;92.82;44.22;;;11.50;99.90;;;;;;6156291;23;20367;-93
2023/10/28 00:53:25;;;;;;;86.13;42.75;;;11.10;99.90;;;;;;6157504;23;20458;-93
2023/10/28 00:55:51;;;;;;;76.43;41.65;;;11.10;99.90;;;;;;6181264;23;20370;-93
2023/10/28 00:58:21;;;;;;;86.38;43.75;;;11.50;99.90;;;;;;6157365;23;20402;-93
2023/10/28 01:00:47;;;;;;;82.70;42.70;;;11.10;99.90;;;;;;6181462;23;20375;-93
2023/10/28 01:03:14;;;;;;;99.93;44.50;;;11.00;99.90;;;;;;6181650;23;20469;-94
2023/10/28 01:05:40;;;;;;;84.43;43.83;;;11.40;99.90;;;;;;6157263;23;20410;-93
2023/10/28 01:08:06;;;;;;;70.07;40.05;;;11.00;99.90;;;;;;6156444;23;20372;-92
2023/10/28 01:10:33;;;;;;;77.00;41.63;;;11.30;99.90;;;;;;6157444;23;20378;-93
2023/10/28 01:12:59;;;;;;;84.00;43.90;;;11.20;99.90;;;;;;6181324;23;20426;-92
2023/10/28 01:15:26;;;;;;;83.73;43.27;;;11.10;99.90;;;;;;6157526;23;20371;-94
2023/10/28 01:17:52;;;;;;;71.28;40.13;;;11.50;99.90;;;;;;6181185;23;20429;-93
2023/10/28 01:20:18;;;;;;;89.20;44.67;;;11.40;99.90;;;;;;6181899;23;20364;-93
2023/10/28 01:22:44;;;;;;;73.50;40.92;;;11.00;99.90;;;;;;6157080;23;20375;-93
2023/10/28 01:25:10;;;;;;;77.40;42.37;;;11.20;99.90;;;;;;6156795;23;20391;-93
2023/10/28 01:27:36;;;;;;;85.97;43.20;;;10.90;99.90;;;;;;6158487;23;20422;-93
2023/10/28 01:30:04;;;;;;;83.03;42.80;;;11.40;99.90;;;;;;6182500;23;20378;-92
2023/10/28 01:32:29;;;;;;;89.70;44.38;;;10.90;99.90;;;;;;6184518;23;20399;-94
2023/10/28 01:34:56;;;;;;;86.13;42.78;;;11.30;99.90;;;;;;6158183;23;20371;-92
2023/10/28 01:37:22;;;;;;;79.87;43.47;;;11.30;99.90;;;;;;6159434;23;20476;-93
2023/10/28 01:39:51;;;;;;;82.60;43.23;;;11.20;99.90;;;;;;6158575;23;20531;-92
2023/10/28 01:42:19;;;;;;;82.43;43.05;;;11.00;99.90;;;;;;6182719;23;20407;-93
2023/10/28 01:44:45;;;;;;;86.43;44.13;;;11.40;99.90;;;;;;6183323;23;20496;-92
2023/10/28 01:47:11;;;;;;;75.47;42.83;;;11.50;99.90;;;;;;6182865;23;20705;-93
2023/10/28 01:49:42;;;;;;;93.65;45.75;;;10.80;99.90;;;;;;6183324;23;20403;-93
2023/10/28 01:52:09;;;;;;;75.47;43.22;;;10.80;99.90;;;;;;6158046;23;20402;-93
2023/10/28 01:54:35;;;;;;;78.03;42.65;;;10.40;99.90;;;;;;6183818;23;20372;-93
2023/10/28 01:57:06;;;;;;;81.20;44.40;;;11.00;99.90;;;;;;6182625;23;20368;-94
2023/10/28 01:59:36;;;;;;;83.03;44.03;;;10.60;99.90;;;;;;6181512;23;20429;-91
2023/10/28 02:02:03;;;;;;;84.43;43.92;;;10.80;99.90;;;;;;6181763;23;20368;-94
2023/10/28 02:04:32;;;;;;;92.40;46.60;;;10.50;99.90;;;;;;6155998;23;20395;-92
2023/10/28 02:06:58;;;;;;;89.47;45.78;;;10.70;99.90;;;;;;6158431;23;20376;-94
2023/10/28 02:09:25;;;;;;;94.55;46.13;;;10.80;99.90;;;;;;6157365;23;20870;-90
2023/10/28 02:11:52;;;;;;;90.53;44.92;;;10.30;99.90;;;;;;6159225;23;20756;-92
2023/10/28 02:14:19;;;;;;;89.95;44.17;;;11.10;99.90;;;;;;6183872;23;20364;-93
2023/10/28 02:16:45;;;;;;;98.37;46.77;;;10.70;99.90;;;;;;6182932;23;20433;-95
2023/10/28 02:19:10;;;;;;;106.13;46.00;;;10.80;99.90;;;;;;6158621;23;20374;-93
2023/10/28 02:21:36;;;;;;;117.82;48.90;;;10.50;99.90;;;;;;6157767;23;20689;-93
2023/10/28 02:24:03;;;;;;;95.47;45.83;;;10.80;99.90;;;;;;6158349;23;20364;-94
2023/10/28 02:26:33;;;;;;;97.80;46.10;;;10.40;99.90;;;;;;6157525;23;20484;-94
2023/10/28 02:29:00;;;;;;;108.70;47.17;;;10.50;99.90;;;;;;6158484;23;20375;-94
2023/10/28 02:31:25;;;;;;;130.57;49.65;;;10.80;99.90;;;;;;6157558;23;20678;-93
2023/10/28 02:33:51;;;;;;;112.22;46.70;;;10.80;99.90;;;;;;6158319;23;20386;-94
2023/10/28 02:36:17;;;;;;;116.78;46.42;;;10.60;99.90;;;;;;6157734;23;20371;-94
2023/10/28 02:38:42;;;;;;;110.03;45.80;;;10.80;99.90;;;;;;6157381;23;20472;-94
2023/10/28 02:41:08;;;;;;;93.57;44.08;;;10.40;99.90;;;;;;6158154;23;20379;-94
2023/10/28 02:43:35;;;;;;;94.72;43.40;;;10.70;99.90;;;;;;6157844;23;20376;-93
2023/10/28 02:46:03;;;;;;;103.20;44.13;;;10.70;99.90;;;;;;6158133;23;20391;-94
2023/10/28 02:48:29;;;;;;;88.75;41.90;;;10.60;99.90;;;;;;6182067;23;20490;-93
2023/10/28 02:50:54;;;;;;;88.00;42.10;;;10.60;99.90;;;;;;6183072;23;20370;-94
2023/10/28 02:53:20;;;;;;;74.65;38.42;;;10.50;99.90;;;;;;6157800;23;20384;-92
2023/10/28 02:55:46;;;;;;;79.97;38.80;;;10.10;99.90;;;;;;6157578;23;20400;-92
2023/10/28 02:58:12;;;;;;;80.03;38.37;;;10.60;99.90;;;;;;6158205;23;20894;-94
2023/10/28 03:00:37;;;;;;;63.05;34.90;;;10.70;99.90;;;;;;6157288;23;20375;-92
2023/10/28 03:03:03;;;;;;;73.57;36.80;;;10.30;99.90;;;;;;6157951;23;20766;-93
2023/10/28 03:05:29;;;;;;;85.97;38.20;;;10.30;99.90;;;;;;6157591;23;20396;-92
2023/10/28 03:07:55;;;;;;;68.43;36.00;;;10.50;99.90;;;;;;6158598;23;20379;-94
2023/10/28 03:10:21;;;;;;;77.18;35.72;;;9.90;99.90;;;;;;6182266;23;20379;-92
2023/10/28 03:12:48;;;;;;;65.32;34.65;;;10.30;99.90;;;;;;6157709;23;20379;-93
2023/10/28 03:15:13;;;;;;;75.17;35.13;;;10.40;99.90;;;;;;6182097;23;20812;-95
2023/10/28 03:17:39;;;;;;;78.23;35.93;;;10.00;99.90;;;;;;6157551;23;20383;-92
2023/10/28 03:20:11;;;;;;;79.88;35.13;;;10.30;99.90;;;;;;6157411;23;20752;-92
2023/10/28 03:22:37;;;;;;;82.25;34.88;;;10.00;99.90;;;;;;6181867;23;20426;-93
2023/10/28 03:25:03;;;;;;;75.97;35.03;;;10.30;99.90;;;;;;6183001;23;20463;-93
2023/10/28 03:27:29;;;;;;;67.03;32.67;;;9.90;99.90;;;;;;6181995;23;20443;-94
2023/10/28 03:29:56;;;;;;;70.45;34.25;;;10.30;99.90;;;;;;6157787;23;20426;-93
2023/10/28 03:32:22;;;;;;;92.53;35.25;;;9.90;99.90;;;;;;6157180;23;20454;-93
2023/10/28 03:34:48;;;;;;;90.00;35.43;;;9.80;99.90;;;;;;6157023;23;20402;-92
2023/10/28 03:37:13;;;;;;;74.50;33.67;;;10.40;99.90;;;;;;6158116;23;20428;-92
2023/10/28 03:39:39;;;;;;;68.07;32.60;;;9.80;99.90;;;;;;6157087;23;20364;-93
2023/10/28 03:42:08;;;;;;;97.85;36.05;;;9.90;99.90;;;;;;6158149;23;20419;-92
2023/10/28 03:44:34;;;;;;;83.10;32.88;;;9.70;99.90;;;;;;6156877;23;20396;-92
2023/10/28 03:47:00;;;;;;;82.57;32.33;;;9.90;99.90;;;;;;6158146;23;20390;-92
2023/10/28 03:49:27;;;;;;;91.18;34.35;;;9.80;99.90;;;;;;6157364;23;20407;-92
2023/10/28 03:51:53;;;;;;;101.88;35.60;;;9.50;99.90;;;;;;6156602;23;20364;-93
2023/10/28 03:54:18;;;;;;;102.45;36.42;;;9.80;99.90;;;;;;6157546;23;20446;-93
2023/10/28 03:56:44;;;;;;;97.03;36.10;;;9.70;99.90;;;;;;6156752;23;20376;-93
2023/10/28 03:59:09;;;;;;;74.22;30.33;;;9.50;99.90;;;;;;6157905;23;20680;-91
2023/10/28 04:01:35;;;;;;;85.68;33.85;;;9.50;99.90;;;;;;6157289;23;20485;-94
2023/10/28 04:04:01;;;;;;;99.23;36.30;;;10.30;99.90;;;;;;6157532;23;20379;-93
2023/10/28 04:06:27;;;;;;;97.40;37.22;;;9.90;99.90;;;;;;6157338;23;20431;-92
2023/10/28 04:08:53;;;;;;;102.13;35.15;;;9.50;99.90;;;;;;6157820;23;20370;-93
2023/10/28 04:11:18;;;;;;;80.30;33.58;;;9.60;99.90;;;;;;6157638;23;20365;-93
2023/10/28 04:13:44;;;;;;;92.07;34.13;;;9.30;99.90;;;;;;6156611;23;20450;-93
2023/10/28 04:16:09;;;;;;;93.93;35.27;;;9.50;99.90;;;;;;6157970;23;20749;-93
2023/10/28 04:18:35;;;;;;;86.15;33.03;;;8.70;99.90;;;;;;6156465;23;20730;-94
2023/10/28 04:21:01;;;;;;;98.95;37.47;;;9.10;99.90;;;;;;6157815;23;20381;-94
2023/10/28 04:23:27;;;;;;;85.00;35.13;;;9.20;99.90;;;;;;6157010;23;20372;-94
2023/10/28 04:25:52;;;;;;;72.33;32.90;;;9.40;99.90;;;;;;6157144;23;20395;-93
2023/10/28 04:28:18;;;;;;;85.45;35.17;;;9.30;99.90;;;;;;6157762;23;20374;-93
2023/10/28 04:30:57;;;;;;;93.83;37.00;;;8.90;99.90;;;;;;6156907;23;20364;-92
2023/10/28 04:33:24;;;;;;;82.32;36.90;;;9.10;99.90;;;;;;6157508;23;20375;-92
2023/10/28 04:35:53;;;;;;;108.63;40.75;;;8.80;99.90;;;;;;6156483;23;20836;-93
2023/10/28 04:38:20;;;;;;;106.40;39.25;;;9.10;99.90;;;;;;6157430;23;20455;-92
2023/10/28 04:40:46;;;;;;;99.78;37.88;;;9.30;99.90;;;;;;6181610;23;20371;-93
2023/10/28 04:43:12;;;;;;;98.57;39.50;;;9.30;99.90;;;;;;6157434;23;20463;-94
2023/10/28 04:45:42;;;;;;;94.07;38.10;;;9.40;99.90;;;;;;6157054;23;20392;-93
2023/10/28 04:48:10;;;;;;;99.75;38.92;;;9.20;99.90;;;;;;6156777;23;20383;-93
2023/10/28 04:50:36;;;;;;;101.82;39.83;;;9.20;99.90;;;;;;6157221;23;20438;-93
2023/10/28 04:53:02;;;;;;;98.93;40.92;;;9.40;99.90;;;;;;6181263;23;20367;-94
2023/10/28 04:55:27;;;;;;;103.05;41.38;;;8.90;99.90;;;;;;6157941;23;20411;-93
2023/10/28 04:57:53;;;;;;;106.67;43.10;;;10.10;99.90;;;;;;6156987;23;20959;-92
2023/10/28 05:00:19;;;;;;;103.20;41.23;;;9.10;99.90;;;;;;6157690;23;20413;-93
2023/10/28 05:02:45;;;;;;;113.32;44.33;;;9.40;99.90;;;;;;6158919;23;20730;-94
2023/10/28 05:05:14;;;;;;;102.40;42.22;;;9.70;99.90;;;;;;6147325;23;20447;-92
2023/10/28 05:07:41;;;;;;;99.43;41.93;;;9.40;99.90;;;;;;6179675;23;20498;-93
2023/10/28 05:10:09;;;;;;;117.63;43.58;;;9.90;99.90;;;;;;6158145;23;20438;-93
2023/10/28 05:12:35;;;;;;;108.55;42.40;;;9.50;99.90;;;;;;6159501;23;20380;-94
2023/10/28 05:15:01;;;;;;;105.50;42.75;;;9.40;99.90;;;;;;6183585;23;20371;-94
2023/10/28 05:17:26;;;;;;;106.18;42.70;;;10.10;99.90;;;;;;6183977;23;20367;-92
2023/10/28 05:19:52;;;;;;;106.60;43.88;;;9.80;99.90;;;;;;6157250;23;20451;-93
2023/10/28 05:22:19;;;;;;;119.07;44.93;;;9.80;99.90;;;;;;6157817;23;20364;-92
2023/10/28 05:24:47;;;;;;;113.47;44.88;;;9.80;99.90;;;;;;6158166;23;20930;-93
2023/10/28 05:27:13;;;;;;;86.77;41.00;;;9.80;99.90;;;;;;6158082;23;20845;-93
2023/10/28 05:29:39;;;;;;;127.63;45.47;;;9.70;99.90;;;;;;6158378;23;20371;-94
2023/10/28 05:32:05;;;;;;;107.57;43.90;;;9.70;99.90;;;;;;6158042;23;20364;-94
2023/10/28 05:34:30;;;;;;;116.20;44.50;;;9.50;99.90;;;;;;6159071;23;20442;-93
2023/10/28 05:36:56;;;;;;;113.32;43.88;;;9.50;99.90;;;;;;6158116;23;20426;-91
2023/10/28 05:39:22;;;;;;;109.27;44.30;;;9.70;99.90;;;;;;6158892;23;20364;-93
2023/10/28 05:41:50;;;;;;;104.70;43.42;;;9.70;99.90;;;;;;6158194;23;20487;-92
2023/10/28 05:44:17;;;;;;;122.45;45.58;;;9.80;99.90;;;;;;6157632;23;20383;-92
2023/10/28 05:46:44;;;;;;;115.75;45.85;;;9.90;99.90;;;;;;6159155;23;20391;-95
2023/10/28 05:49:12;;;;;;;106.60;44.17;;;9.90;99.90;;;;;;6158196;23;20395;-94
2023/10/28 05:51:38;;;;;;;124.13;46.17;;;9.70;99.90;;;;;;6158550;23;20802;-92
2023/10/28 05:54:04;;;;;;;104.28;43.85;;;9.80;99.90;;;;;;6157869;23;20921;-93
2023/10/28 05:56:30;;;;;;;120.90;45.60;;;9.70;99.90;;;;;;6157691;23;20459;-94
2023/10/28 05:58:58;;;;;;;102.22;43.78;;;9.60;99.90;;;;;;6158034;23;20386;-93
2023/10/28 06:01:24;;;;;;;93.57;42.83;;;10.30;99.90;;;;;;6182554;23;20385;-94
2023/10/28 06:03:50;;;;;;;102.57;44.08;;;9.80;99.90;;;;;;6183195;23;20777;-93
2023/10/28 06:06:16;;;;;;;96.28;44.03;;;10.50;99.90;;;;;;6157706;23;20426;-95
2023/10/28 06:08:52;;;;;;;118.70;45.77;;;10.00;99.90;;;;;;6159100;23;20443;-93
2023/10/28 06:11:18;;;;;;;114.57;45.10;;;10.60;99.90;;;;;;6158086;23;20379;-94
2023/10/28 06:13:46;;;;;;;105.55;44.08;;;10.10;99.90;;;;;;6182458;23;20368;-92
2023/10/28 06:16:13;;;;;;;93.55;42.33;;;10.10;99.90;;;;;;6158039;23;20359;-94
2023/10/28 06:18:38;;;;;;;96.13;42.33;;;10.20;99.90;;;;;;6157798;23;20368;-93
2023/10/28 06:21:06;;;;;;;98.70;41.77;;;10.30;99.90;;;;;;6159166;23;20368;-94
2023/10/28 06:23:32;;;;;;;90.10;39.83;;;9.90;99.90;;;;;;6158528;23;20841;-93
2023/10/28 06:25:57;;;;;;;110.55;42.10;;;10.10;99.90;;;;;;6158011;23;20392;-93
2023/10/28 06:28:50;;;;;;;88.70;40.40;;;10.20;99.90;;;;;;6157191;23;20856;-95
2023/10/28 06:31:16;;;;;;;83.73;39.33;;;10.10;99.90;;;;;;6152460;23;20407;-93
2023/10/28 06:33:41;;;;;;;113.43;42.83;;;10.80;99.90;;;;;;6157950;23;20379;-94
2023/10/28 06:36:08;;;;;;;82.30;38.53;;;10.30;99.90;;;;;;6158285;23;20853;-95
2023/10/28 06:38:34;;;;;;;81.78;38.95;;;10.20;99.90;;;;;;6157795;23;20387;-95
2023/10/28 06:41:00;;;;;;;95.40;40.28;;;10.70;99.90;;;;;;6158220;23;20506;-94
2023/10/28 06:43:25;;;;;;;78.60;37.23;;;10.80;99.90;;;;;;6157812;23;20403;-93
2023/10/28 06:45:51;;;;;;;70.53;35.07;;;10.70;99.90;;;;;;6157487;23;20409;-94
2023/10/28 06:48:16;;;;;;;65.15;33.13;;;10.40;99.90;;;;;;6158660;23;20372;-93
2023/10/28 06:50:42;;;;;;;67.87;33.60;;;10.50;99.90;;;;;;6158115;23;20422;-94
2023/10/28 06:53:10;;;;;;;58.40;31.37;;;11.30;99.90;;;;;;6158653;23;20372;-94
2023/10/28 06:55:36;;;;;;;68.15;33.50;;;11.40;99.90;;;;;;6156900;23;20372;-96
2023/10/28 06:58:02;;;;;;;51.17;29.27;;;10.70;99.90;;;;;;6159150;23;20385;-95
2023/10/28 07:00:28;;;;;;;52.50;30.63;;;10.60;99.90;;;;;;6157119;23;20368;-95
2023/10/28 07:02:54;;;;;;;50.35;29.60;;;10.70;99.90;;;;;;6157015;23;20918;-94
2023/10/28 07:05:20;;;;;;;41.65;25.48;;;11.00;99.90;;;;;;6182365;23;20960;-93
2023/10/28 07:07:46;;;;;;;46.08;26.50;;;10.70;99.90;;;;;;6158129;23;20376;-93
2023/10/28 07:10:15;;;;;;;47.42;26.92;;;10.50;99.90;;;;;;6157347;23;20693;-93
2023/10/28 07:12:41;;;;;;;49.55;26.90;;;10.80;99.90;;;;;;6156830;23;20414;-92
2023/10/28 07:15:09;;;;;;;37.03;23.75;;;10.80;99.90;;;;;;6182292;23;20690;-93
2023/10/28 07:17:35;;;;;;;43.38;24.70;;;10.70;99.90;;;;;;6157101;23;20693;-94
2023/10/28 07:20:02;;;;;;;37.85;22.80;;;11.40;99.90;;;;;;6157709;23;20371;-93
2023/10/28 07:22:27;;;;;;;35.80;23.42;;;11.00;99.90;;;;;;6181300;23;20679;-93
2023/10/28 07:24:54;;;;;;;32.37;21.43;;;11.10;99.90;;;;;;6154743;23;20406;-93
2023/10/28 07:27:21;;;;;;;30.33;20.20;;;11.20;99.90;;;;;;6155856;23;20364;-92
2023/10/28 07:29:48;;;;;;;27.45;17.98;;;11.10;99.90;;;;;;6180623;23;20704;-93
2023/10/28 07:32:14;;;;;;;29.75;20.77;;;10.60;99.90;;;;;;6157407;23;20673;-94
2023/10/28 07:34:40;;;;;;;25.77;17.63;;;10.90;99.90;;;;;;6157362;23;20399;-94
2023/10/28 07:37:06;;;;;;;24.52;17.33;;;11.10;99.90;;;;;;6157224;23;20363;-92
2023/10/28 07:39:32;;;;;;;24.88;17.42;;;10.40;99.90;;;;;;6157303;23;20364;-94
2023/10/28 07:41:58;;;;;;;24.70;16.70;;;11.20;99.90;;;;;;6181988;23;20465;-92
2023/10/28 07:44:24;;;;;;;22.47;16.30;;;11.10;99.90;;;;;;6157493;23;20368;-93
2023/10/28 07:46:50;;;;;;;20.90;15.68;;;11.30;99.90;;;;;;6181441;23;20467;-94
2023/10/28 07:49:16;;;;;;;21.83;14.90;;;11.50;99.90;;;;;;6157790;23;20403;-93
2023/10/28 07:51:41;;;;;;;21.03;14.57;;;10.90;99.90;;;;;;6156931;23;20375;-93
2023/10/28 07:54:07;;;;;;;22.85;15.55;;;11.40;99.90;;;;;;6157877;23;20881;-93
2023/10/28 07:56:33;;;;;;;19.98;14.27;;;11.40;99.90;;;;;;6157047;23;20363;-93
2023/10/28 07:59:02;;;;;;;19.98;15.00;;;11.70;99.90;;;;;;6157547;23;20387;-94
2023/10/28 08:01:29;;;;;;;22.00;15.82;;;11.80;99.90;;;;;;6181722;23;20658;-95
2023/10/28 08:03:55;;;;;;;19.97;14.63;;;11.60;99.90;;;;;;6181417;23;20363;-92
2023/10/28 08:06:22;;;;;;;19.27;13.30;;;11.50;99.90;;;;;;6181795;23;20395;-92
2023/10/28 08:08:48;;;;;;;17.87;14.27;;;11.90;99.90;;;;;;6181945;23;20368;-93
2023/10/28 08:11:16;;;;;;;19.93;13.83;;;11.50;99.90;;;;;;6157552;23;20443;-93
2023/10/28 08:13:43;;;;;;;17.20;13.80;;;11.80;99.90;;;;;;6157119;23;20376;-93
2023/10/28 08:16:09;;;;;;;18.02;11.95;;;11.90;99.90;;;;;;6157732;23;20375;-93
2023/10/28 08:18:40;;;;;;;18.10;13.20;;;11.60;99.90;;;;;;6157354;23;20853;-93
2023/10/28 08:21:07;;;;;;;17.98;13.50;;;12.10;99.90;;;;;;6156908;23;20462;-93
2023/10/28 08:23:32;;;;;;;16.02;11.70;;;11.60;99.90;;;;;;6182063;23;20435;-93
2023/10/28 08:25:59;;;;;;;16.80;12.43;;;11.80;99.90;;;;;;6181623;23;20609;-93
2023/10/28 08:28:28;;;;;;;18.58;13.23;;;11.80;99.90;;;;;;6182180;23;20932;-94
2023/10/28 08:30:54;;;;;;;19.92;13.55;;;12.00;99.90;;;;;;6156415;23;20375;-94
2023/10/28 08:33:20;;;;;;;16.60;11.55;;;11.90;99.90;;;;;;6157496;23;20383;-92
2023/10/28 08:35:51;;;;;;;16.75;12.40;;;12.00;99.90;;;;;;6158054;23;20820;-92
2023/10/28 08:38:17;;;;;;;14.13;10.75;;;11.70;99.90;;;;;;6159176;23;20371;-90
2023/10/28 08:40:47;;;;;;;15.25;10.57;;;11.40;99.90;;;;;;6184101;23;20753;-93
2023/10/28 08:43:19;;;;;;;17.17;11.87;;;11.90;99.90;;;;;;6159101;23;20414;-93
2023/10/28 08:45:46;;;;;;;15.43;10.23;;;11.90;99.90;;;;;;6159337;23;20391;-93
2023/10/28 08:48:14;;;;;;;13.00;9.93;;;12.20;99.90;;;;;;6183538;23;21037;-91
2023/10/28 08:50:43;;;;;;;11.35;8.88;;;12.00;99.90;;;;;;6159556;23;20909;-91
2023/10/28 08:53:11;;;;;;;14.95;9.93;;;11.70;99.90;;;;;;6159532;23;20402;-92
2023/10/28 08:55:37;;;;;;;14.68;9.85;;;12.40;99.90;;;;;;6159018;23;20425;-92
2023/10/28 08:58:03;;;;;;;18.13;11.90;;;11.60;99.90;;;;;;6158971;23;21049;-92
2023/10/28 09:00:30;;;;;;;17.17;11.07;;;11.80;99.90;;;;;;6158732;23;20454;-93
2023/10/28 09:02:56;;;;;;;14.10;10.38;;;11.40;99.90;;;;;;6159182;23;20430;-93
2023/10/28 09:05:22;;;;;;;13.95;10.57;;;11.90;99.90;;;;;;6158512;23;20942;-95
2023/10/28 09:07:48;;;;;;;13.65;10.32;;;11.80;99.90;;;;;;6159120;23;20394;-94
2023/10/28 09:10:15;;;;;;;15.43;11.32;;;11.70;99.90;;;;;;6158691;23;20359;-92
2023/10/28 09:12:40;;;;;;;12.73;9.93;;;11.70;99.90;;;;;;6183694;23;20367;-91
2023/10/28 09:15:11;;;;;;;13.55;10.13;;;12.00;99.90;;;;;;6158986;23;20883;-92
2023/10/28 09:17:39;;;;;;;14.80;11.13;;;11.60;99.90;;;;;;6183524;23;20399;-92
2023/10/28 09:20:12;;;;;;;15.40;12.15;;;11.90;99.90;;;;;;6183681;23;20368;-93
2023/10/28 09:22:42;;;;;;;15.93;10.80;;;11.70;99.90;;;;;;6183417;23;20363;-93
2023/10/28 09:25:09;;;;;;;15.70;11.23;;;12.00;99.90;;;;;;6183491;23;21242;-94
2023/10/28 09:27:35;;;;;;;15.60;10.23;;;11.90;99.90;;;;;;6184073;23;21231;-92
2023/10/28 09:30:10;;;;;;;14.73;10.57;;;11.90;99.90;;;;;;6158647;23;20368;-93
2023/10/28 09:32:37;;;;;;;16.52;11.35;;;11.70;99.90;;;;;;6183868;23;20372;-92
2023/10/28 09:35:07;;;;;;;13.57;10.70;;;12.10;99.90;;;;;;6182928;23;20371;-93
2023/10/28 09:37:35;;;;;;;14.10;10.80;;;11.80;99.90;;;;;;6159517;23;20911;-94
2023/10/28 09:40:06;;;;;;;15.88;10.77;;;12.10;99.90;;;;;;6183110;23;20364;-91
2023/10/28 09:42:33;;;;;;;14.13;10.15;;;11.90;99.90;;;;;;6183280;23;20379;-91
2023/10/28 09:44:59;;;;;;;16.38;11.18;;;11.80;99.90;;;;;;6183653;23;20391;-93
2023/10/28 09:47:49;;;;;;;20.25;10.27;;;12.30;99.90;;;;;;6183019;23;20371;-92
2023/10/28 09:50:19;;;;;;;11.55;9.60;;;12.10;99.90;;;;;;6158766;23;20375;-90
2023/10/28 09:52:48;;;;;;;13.65;9.82;;;12.20;99.90;;;;;;6158755;23;20375;-91
2023/10/28 09:55:15;;;;;;;13.95;9.00;;;12.40;99.90;;;;;;6158936;23;20697;-92
2023/10/28 09:57:43;;;;;;;10.30;9.07;;;12.40;99.90;;;;;;6158520;23;20769;-92
2023/10/28 10:00:20;;;;;;;14.50;10.00;;;12.50;99.90;;;;;;6158150;23;20367;-90
2023/10/28 10:02:59;;;;;;;13.57;9.18;;;12.20;99.90;;;;;;6157941;23;20376;-92
2023/10/28 10:05:36;;;;;;;12.75;9.30;;;12.10;99.90;;;;;;6157659;23;20396;-92
2023/10/28 10:08:02;;;;;;;12.27;9.00;;;12.10;99.90;;;;;;6159128;23;20418;-91
2023/10/28 10:10:28;;;;;;;13.18;8.70;;;12.10;99.90;;;;;;6156175;23;20375;-91
2023/10/28 10:13:03;;;;;;;11.98;8.98;;;12.00;99.90;;;;;;6158560;23;20425;-92
2023/10/28 10:15:33;;;;;;;11.30;8.07;;;12.10;99.90;;;;;;6158861;23;20375;-92
2023/10/28 10:18:18;;;;;;;12.45;8.10;;;12.20;99.90;;;;;;6157812;23;20364;-93
2023/10/28 10:20:44;;;;;;;11.23;7.55;;;12.60;99.90;;;;;;6158629;23;20408;-92
2023/10/28 10:23:10;;;;;;;10.90;7.97;;;12.20;99.90;;;;;;6158393;23;20374;-91
2023/10/28 10:25:40;;;;;;;10.80;8.45;;;12.10;99.90;;;;;;6158101;23;20716;-91
2023/10/28 10:28:23;;;;;;;12.27;7.55;;;12.40;99.90;;;;;;6158203;23;20376;-92
2023/10/28 10:30:49;;;;;;;12.27;7.43;;;12.20;99.90;;;;;;6157722;23;20376;-92
2023/10/28 10:33:25;;;;;;;13.75;7.85;;;12.50;99.90;;;;;;6158619;23;20921;-93
2023/10/28 10:35:51;;;;;;;12.43;8.80;;;12.30;99.90;;;;;;6158738;23;20868;-92
2023/10/28 10:38:28;;;;;;;13.70;8.73;;;13.30;99.90;;;;;;6158306;23;20378;-91
2023/10/28 10:40:58;;;;;;;11.93;7.72;;;12.80;99.90;;;;;;6157805;23;20383;-90
2023/10/28 10:43:31;;;;;;;14.73;8.70;;;12.90;99.90;;;;;;6158097;23;20455;-92
2023/10/28 10:45:58;;;;;;;12.85;7.60;;;12.60;99.90;;;;;;6158091;23;20475;-92
2023/10/28 10:48:26;;;;;;;11.73;8.27;;;12.90;99.90;;;;;;6156957;23;20879;-92
2023/10/28 10:50:54;;;;;;;13.10;8.00;;;12.80;99.90;;;;;;6157942;23;20368;-92
2023/10/28 10:53:19;;;;;;;12.10;7.43;;;12.90;99.90;;;;;;6156851;23;20728;-92
2023/10/28 10:55:45;;;;;;;10.70;6.82;;;12.60;99.90;;;;;;6157754;23;20405;-94
2023/10/28 10:58:11;;;;;;;11.13;8.07;;;12.80;99.90;;;;;;6157496;23;20368;-91
2023/10/28 11:00:37;;;;;;;15.65;7.72;;;12.60;99.90;;;;;;6157574;23;20457;-92
2023/10/28 11:03:03;;;;;;;12.00;7.00;;;12.80;99.90;;;;;;6158026;23;20375;-91
2023/10/28 11:05:32;;;;;;;11.30;6.60;;;12.70;99.90;;;;;;6157158;23;20391;-91
2023/10/28 11:07:58;;;;;;;10.40;6.22;;;13.20;99.90;;;;;;6157795;23;20418;-92
2023/10/28 11:10:25;;;;;;;10.30;6.35;;;13.30;99.90;;;;;;6157782;23;20368;-91
2023/10/28 11:12:52;;;;;;;9.50;6.63;;;13.20;99.90;;;;;;6157986;23;20413;-91
2023/10/28 11:15:21;;;;;;;10.15;5.82;;;13.40;99.90;;;;;;6158126;23;20482;-90
2023/10/28 11:17:48;;;;;;;13.97;7.00;;;13.50;99.90;;;;;;6158337;23;20395;-91
2023/10/28 11:20:19;;;;;;;9.77;5.30;;;13.30;99.90;;;;;;6157265;23;20375;-91
2023/10/28 11:22:46;;;;;;;8.90;4.85;;;13.10;99.90;;;;;;6157071;23;20418;-91
2023/10/28 11:25:12;;;;;;;8.75;4.70;;;13.30;99.90;;;;;;6157920;23;20402;-92
2023/10/28 11:27:38;;;;;;;9.23;5.07;;;13.10;99.90;;;;;;6157932;23;20367;-92
2023/10/28 11:30:05;;;;;;;10.27;5.32;;;13.20;99.90;;;;;;6157547;23;20364;-91
2023/10/28 11:32:39;;;;;;;9.07;4.80;;;13.00;99.90;;;;;;6157884;23;20389;-91
2023/10/28 11:35:08;;;;;;;9.30;5.47;;;13.30;99.90;;;;;;6157400;23;20789;-94
2023/10/28 11:37:34;;;;;;;9.80;4.97;;;13.00;99.90;;;;;;6157863;23;20375;-91
2023/10/28 11:40:00;;;;;;;11.30;5.13;;;13.30;99.90;;;;;;6157577;23;20434;-91
2023/10/28 11:42:27;;;;;;;10.02;4.97;;;13.30;99.90;;;;;;6158208;23;20364;-92
2023/10/28 11:44:52;;;;;;;8.88;5.15;;;13.00;99.90;;;;;;6157477;23;20425;-92
2023/10/28 11:47:21;;;;;;;8.93;5.07;;;12.90;99.90;;;;;;6157637;23;20399;-93
2023/10/28 11:49:47;;;;;;;9.68;4.93;;;13.40;99.90;;;;;;6157154;23;20470;-92
2023/10/28 11:52:13;;;;;;;8.45;4.60;;;13.20;99.90;;;;;;6156738;23;20368;-92
2023/10/28 11:54:42;;;;;;;9.25;5.18;;;13.10;99.90;;;;;;6157613;23;20363;-92
2023/10/28 11:57:08;;;;;;;8.25;4.55;;;13.70;99.90;;;;;;6156716;23;20391;-92
2023/10/28 11:59:34;;;;;;;9.77;4.40;;;13.10;99.90;;;;;;6157681;23;20376;-91
2023/10/28 12:02:00;;;;;;;10.73;5.18;;;13.40;99.90;;;;;;6157210;23;20372;-94
2023/10/28 12:04:26;;;;;;;9.50;4.68;;;13.30;99.90;;;;;;6157827;23;20418;-92
2023/10/28 12:06:52;;;;;;;7.87;4.27;;;13.30;99.90;;;;;;6156260;23;20430;-90
2023/10/28 12:09:17;;;;;;;8.27;4.32;;;13.30;99.90;;;;;;6157082;23;20372;-89
2023/10/28 12:11:43;;;;;;;8.55;4.82;;;13.40;99.90;;;;;;6157364;23;20387;-91
2023/10/28 12:14:10;;;;;;;8.30;4.25;;;13.20;99.90;;;;;;6157144;23;21092;-92
2023/10/28 12:16:39;;;;;;;8.55;4.50;;;13.20;99.90;;;;;;6157443;23;20363;-92
2023/10/28 12:19:06;;;;;;;9.67;4.10;;;13.20;99.90;;;;;;6155796;23;20399;-93
2023/10/28 12:21:36;;;;;;;9.40;4.18;;;13.50;99.90;;;;;;6156755;23;20410;-93
2023/10/28 12:24:05;;;;;;;8.10;4.38;;;13.40;99.90;;;;;;6157010;23;20458;-93
2023/10/28 12:26:31;;;;;;;10.93;4.57;;;13.20;99.90;;;;;;6157210;23;20745;-91
2023/10/28 12:28:57;;;;;;;7.72;4.50;;;13.10;99.90;;;;;;6156770;23;20399;-92
2023/10/28 12:31:23;;;;;;;8.67;4.60;;;13.30;99.90;;;;;;6156811;23;20372;-92